This is the latest recevied weather packets stored in our database for station/object N4WFF. If no packets are shown the sender has not sent any weather packets the latest 1 day(s).
| Time | Temp. | Humidity | Pressure | Rain* | Wind** | Luminosity | Snow |
|---|---|---|---|---|---|---|---|
| 1778089556 | 26.67° C | 72% | 1016 hPa | 0 mm | - | 352 W/m² | - |
| 1778086256 | 27.22° C | 70% | 1016.4 hPa | 0 mm | - | 1224 W/m² | - |
| 1778085056 | 26.67° C | 71% | 1016.6 hPa | 0 mm | - | 961 W/m² | - |
| 1778083856 | 26.11° C | 73% | 1016.9 hPa | 0 mm | - | 938 W/m² | - |
| 1778083256 | 25° C | 78% | 1017.1 hPa | 0 mm | - | 793 W/m² | - |
| 1778082356 | 25° C | 76% | 1017.3 hPa | 0 mm | - | 279 W/m² | - |
| 1778081757 | 24.44° C | 78% | 1017.3 hPa | 0 mm | - | 347 W/m² | - |
| 1778081456 | 24.44° C | 78% | 1017.3 hPa | 0 mm | - | 361 W/m² | - |
| 1778081156 | 24.44° C | 78% | 1017.3 hPa | 0 mm | - | 132 W/m² | - |
| 1778080856 | 25° C | 78% | 1017.2 hPa | 0 mm | - | 83 W/m² | - |
| 1778080555 | 25° C | 77% | 1017.1 hPa | 0 mm | - | 123 W/m² | - |
| 1778080256 | 25.56° C | 76% | 1017 hPa | 0 mm | - | 427 W/m² | - |
| 1778079656 | 25° C | 76% | 1017 hPa | 0 mm | - | 811 W/m² | - |
| 1778078756 | 23.89° C | 82% | 1017 hPa | 0 mm | - | 774 W/m² | - |
| 1778078456 | 23.89° C | 83% | 1016.9 hPa | 0 mm | - | 169 W/m² | - |
| 1778077856 | 23.89° C | 82% | 1016.8 hPa | 0 mm | - | 771 W/m² | - |
| 1778076356 | 22.78° C | 87% | 1016.7 hPa | 0 mm | - | 290 W/m² | - |
| 1778076057 | 22.78° C | 87% | 1016.7 hPa | 0 mm | - | 251 W/m² | - |
| 1778075756 | 22.22° C | 88% | 1016.6 hPa | 0 mm | - | 300 W/m² | - |
| 1778075456 | 22.22° C | 90% | 1016.5 hPa | 0 mm | - | 496 W/m² | - |
| 1778075156 | 21.67° C | 91% | 1016.4 hPa | 0 mm | - | 230 W/m² | - |
| 1778074859 | 21.11° C | 92% | 1016.4 hPa | 0 mm | - | 329 W/m² | - |
| 1778073956 | 20.56° C | 96% | 1016.2 hPa | 0 mm | - | 193 W/m² | - |
| 1778072156 | 20° C | 98% | 1015.7 hPa | 0 mm | - | 90 W/m² | - |
| 1778071856 | 20° C | 98% | 1015.6 hPa | 0 mm | - | 98 W/m² | - |
* Rain latest hour (hover to see other rain measurements)
** Current wind speed in m/s (hover to see current wind gust speed)